Terminal Aerodrome Forecast
Issued by NWS Portland, OR

Home | Current Version | Previous Version | Text Only | Print | Product List | Glossary On
Versions: 1 2 3 4 5 6 7 8 9 10 11 12 13 14 15 16 17 18 19 20 21 22 23 24 25 26 27 28 29 30 31 32 33 34 35 36
000
FTUS46 KPQR 281742
TAFAST
TAF
KAST 281742Z 2818/2918 23004KT P6SM OVC025
     FM282000 26008KT P6SM SCT025
     FM290200 23004KT P6SM SCT030 BKN070
     FM290800 22004KT P6SM BKN015=

USA.gov is the U.S. government's official web portal to all federal, state and local government web resources and services.